sensor_id;sensor_type;location;lat;lon;timestamp;temperature;humidity
59660;DHT22;45534;52.690;6.268;2022-11-15T00:00:21;7.40;99.90
59660;DHT22;45534;52.690;6.268;2022-11-15T00:02:47;7.40;99.90
59660;DHT22;45534;52.690;6.268;2022-11-15T00:05:12;7.40;99.90
59660;DHT22;45534;52.690;6.268;2022-11-15T00:07:38;7.40;99.90
59660;DHT22;45534;52.690;6.268;2022-11-15T00:10:04;7.40;99.90
59660;DHT22;45534;52.690;6.268;2022-11-15T00:12:30;7.40;99.90
59660;DHT22;45534;52.690;6.268;2022-11-15T00:14:55;7.40;99.90
59660;DHT22;45534;52.690;6.268;2022-11-15T00:17:21;7.40;99.90
59660;DHT22;45534;52.690;6.268;2022-11-15T00:19:47;7.40;99.90
59660;DHT22;45534;52.690;6.268;2022-11-15T00:22:12;7.40;99.90
59660;DHT22;45534;52.690;6.268;2022-11-15T00:24:38;7.40;99.90
59660;DHT22;45534;52.690;6.268;2022-11-15T00:27:04;7.50;99.90
59660;DHT22;45534;52.690;6.268;2022-11-15T00:29:29;7.40;99.90
59660;DHT22;45534;52.690;6.268;2022-11-15T00:31:55;7.40;99.90
59660;DHT22;45534;52.690;6.268;2022-11-15T00:34:21;7.40;99.90
59660;DHT22;45534;52.690;6.268;2022-11-15T00:36:46;7.50;99.90
59660;DHT22;45534;52.690;6.268;2022-11-15T00:39:12;7.50;99.90
59660;DHT22;45534;52.690;6.268;2022-11-15T00:41:37;7.40;99.90
59660;DHT22;45534;52.690;6.268;2022-11-15T00:44:03;7.50;99.90
59660;DHT22;45534;52.690;6.268;2022-11-15T00:46:29;7.40;99.90
59660;DHT22;45534;52.690;6.268;2022-11-15T00:48:54;7.40;99.90
59660;DHT22;45534;52.690;6.268;2022-11-15T00:51:20;7.40;99.90
59660;DHT22;45534;52.690;6.268;2022-11-15T00:53:46;7.40;99.90
59660;DHT22;45534;52.690;6.268;2022-11-15T00:56:11;7.40;99.90
59660;DHT22;45534;52.690;6.268;2022-11-15T00:58:37;7.40;99.90
59660;DHT22;45534;52.690;6.268;2022-11-15T01:01:10;7.40;99.90
59660;DHT22;45534;52.690;6.268;2022-11-15T01:03:38;7.40;99.90
59660;DHT22;45534;52.690;6.268;2022-11-15T01:06:05;7.40;99.90
59660;DHT22;45534;52.690;6.268;2022-11-15T01:08:31;7.40;99.90
59660;DHT22;45534;52.690;6.268;2022-11-15T01:11:10;7.40;99.90
59660;DHT22;45534;52.690;6.268;2022-11-15T01:13:37;7.40;99.90
59660;DHT22;45534;52.690;6.268;2022-11-15T01:16:12;7.40;99.90
59660;DHT22;45534;52.690;6.268;2022-11-15T01:18:38;7.40;99.90
59660;DHT22;45534;52.690;6.268;2022-11-15T01:21:12;7.40;99.90
59660;DHT22;45534;52.690;6.268;2022-11-15T01:23:37;7.50;99.90
59660;DHT22;45534;52.690;6.268;2022-11-15T01:26:06;7.50;99.90
59660;DHT22;45534;52.690;6.268;2022-11-15T01:28:36;7.50;99.90
59660;DHT22;45534;52.690;6.268;2022-11-15T01:31:05;7.50;99.90
59660;DHT22;45534;52.690;6.268;2022-11-15T01:33:33;7.50;99.90
59660;DHT22;45534;52.690;6.268;2022-11-15T01:36:03;7.50;99.90
59660;DHT22;45534;52.690;6.268;2022-11-15T01:38:29;7.50;99.90
59660;DHT22;45534;52.690;6.268;2022-11-15T01:40:55;7.50;99.90
59660;DHT22;45534;52.690;6.268;2022-11-15T01:43:33;7.50;99.90
59660;DHT22;45534;52.690;6.268;2022-11-15T01:46:04;7.50;99.90
59660;DHT22;45534;52.690;6.268;2022-11-15T01:48:34;7.60;99.90
59660;DHT22;45534;52.690;6.268;2022-11-15T01:51:02;7.60;99.90
59660;DHT22;45534;52.690;6.268;2022-11-15T01:53:32;7.60;99.90
59660;DHT22;45534;52.690;6.268;2022-11-15T01:56:02;7.60;99.90
59660;DHT22;45534;52.690;6.268;2022-11-15T01:58:29;7.60;99.90
59660;DHT22;45534;52.690;6.268;2022-11-15T02:00:55;7.60;99.90
59660;DHT22;45534;52.690;6.268;2022-11-15T02:03:22;7.60;99.90
59660;DHT22;45534;52.690;6.268;2022-11-15T02:05:51;7.70;99.90
59660;DHT22;45534;52.690;6.268;2022-11-15T02:08:17;7.70;99.90
59660;DHT22;45534;52.690;6.268;2022-11-15T02:10:48;7.70;99.90
59660;DHT22;45534;52.690;6.268;2022-11-15T02:13:15;7.70;99.90
59660;DHT22;45534;52.690;6.268;2022-11-15T02:18:54;7.70;99.90
59660;DHT22;45534;52.690;6.268;2022-11-15T02:21:36;7.70;99.90
59660;DHT22;45534;52.690;6.268;2022-11-15T02:32:38;7.80;99.90
59660;DHT22;45534;52.690;6.268;2022-11-15T02:37:50;7.90;99.90
59660;DHT22;45534;52.690;6.268;2022-11-15T02:43:09;7.90;99.90
59660;DHT22;45534;52.690;6.268;2022-11-15T02:46:22;7.90;99.90
59660;DHT22;45534;52.690;6.268;2022-11-15T02:48:45;7.90;99.90
59660;DHT22;45534;52.690;6.268;2022-11-15T02:51:12;8.00;99.90
59660;DHT22;45534;52.690;6.268;2022-11-15T02:53:38;8.00;99.90
59660;DHT22;45534;52.690;6.268;2022-11-15T02:56:04;8.00;99.90
59660;DHT22;45534;52.690;6.268;2022-11-15T03:07:05;8.00;99.90
59660;DHT22;45534;52.690;6.268;2022-11-15T03:09:56;8.10;99.90
59660;DHT22;45534;52.690;6.268;2022-11-15T03:12:56;8.10;99.90
59660;DHT22;45534;52.690;6.268;2022-11-15T03:15:37;8.10;99.90
59660;DHT22;45534;52.690;6.268;2022-11-15T03:18:30;8.10;99.90
59660;DHT22;45534;52.690;6.268;2022-11-15T03:21:00;8.20;99.90
59660;DHT22;45534;52.690;6.268;2022-11-15T03:23:26;8.20;99.90
59660;DHT22;45534;52.690;6.268;2022-11-15T03:25:55;8.20;99.90
59660;DHT22;45534;52.690;6.268;2022-11-15T03:28:30;8.20;99.90
59660;DHT22;45534;52.690;6.268;2022-11-15T03:30:59;8.20;99.90
59660;DHT22;45534;52.690;6.268;2022-11-15T03:33:28;8.30;99.90
59660;DHT22;45534;52.690;6.268;2022-11-15T03:35:55;8.30;99.90
59660;DHT22;45534;52.690;6.268;2022-11-15T03:38:26;8.30;99.90
59660;DHT22;45534;52.690;6.268;2022-11-15T03:40:59;8.40;99.90
59660;DHT22;45534;52.690;6.268;2022-11-15T03:46:06;8.40;99.90
59660;DHT22;45534;52.690;6.268;2022-11-15T03:48:46;8.40;99.90
59660;DHT22;45534;52.690;6.268;2022-11-15T03:51:14;8.40;99.90
59660;DHT22;45534;52.690;6.268;2022-11-15T03:53:41;8.40;99.90
59660;DHT22;45534;52.690;6.268;2022-11-15T03:56:07;8.40;99.90
59660;DHT22;45534;52.690;6.268;2022-11-15T03:58:32;8.50;99.90
59660;DHT22;45534;52.690;6.268;2022-11-15T04:00:58;8.50;99.90
59660;DHT22;45534;52.690;6.268;2022-11-15T04:03:25;8.50;99.90
59660;DHT22;45534;52.690;6.268;2022-11-15T04:05:50;8.50;99.90
59660;DHT22;45534;52.690;6.268;2022-11-15T04:08:16;8.50;99.90
59660;DHT22;45534;52.690;6.268;2022-11-15T04:10:43;8.60;99.90
59660;DHT22;45534;52.690;6.268;2022-11-15T04:13:09;8.60;99.90
59660;DHT22;45534;52.690;6.268;2022-11-15T04:15:35;8.60;99.90
59660;DHT22;45534;52.690;6.268;2022-11-15T04:18:00;8.60;99.90
59660;DHT22;45534;52.690;6.268;2022-11-15T04:20:30;8.60;99.90
59660;DHT22;45534;52.690;6.268;2022-11-15T04:23:22;8.70;99.90
59660;DHT22;45534;52.690;6.268;2022-11-15T04:26:17;8.70;99.90
59660;DHT22;45534;52.690;6.268;2022-11-15T04:28:43;8.70;99.90
59660;DHT22;45534;52.690;6.268;2022-11-15T04:31:27;8.80;99.90
59660;DHT22;45534;52.690;6.268;2022-11-15T04:33:53;8.80;99.90
59660;DHT22;45534;52.690;6.268;2022-11-15T04:36:20;8.80;99.90
59660;DHT22;45534;52.690;6.268;2022-11-15T04:39:04;8.90;99.90
59660;DHT22;45534;52.690;6.268;2022-11-15T04:41:30;8.90;99.90
59660;DHT22;45534;52.690;6.268;2022-11-15T04:43:56;8.90;99.90
59660;DHT22;45534;52.690;6.268;2022-11-15T04:46:23;8.90;99.90
59660;DHT22;45534;52.690;6.268;2022-11-15T04:48:49;9.00;99.90
59660;DHT22;45534;52.690;6.268;2022-11-15T04:51:15;9.10;99.90
59660;DHT22;45534;52.690;6.268;2022-11-15T04:53:41;9.10;99.90
59660;DHT22;45534;52.690;6.268;2022-11-15T04:56:07;9.10;99.90
59660;DHT22;45534;52.690;6.268;2022-11-15T04:58:32;9.10;99.90
59660;DHT22;45534;52.690;6.268;2022-11-15T05:01:09;9.10;99.90
59660;DHT22;45534;52.690;6.268;2022-11-15T05:03:35;9.20;99.90
59660;DHT22;45534;52.690;6.268;2022-11-15T05:06:19;9.20;99.90
59660;DHT22;45534;52.690;6.268;2022-11-15T05:08:45;9.20;99.90
59660;DHT22;45534;52.690;6.268;2022-11-15T05:11:11;9.20;99.90
59660;DHT22;45534;52.690;6.268;2022-11-15T05:13:37;9.30;99.90
59660;DHT22;45534;52.690;6.268;2022-11-15T05:16:02;9.30;99.90
59660;DHT22;45534;52.690;6.268;2022-11-15T05:18:28;9.30;99.90
59660;DHT22;45534;52.690;6.268;2022-11-15T05:20:54;9.40;99.90
59660;DHT22;45534;52.690;6.268;2022-11-15T05:23:19;9.40;99.90
59660;DHT22;45534;52.690;6.268;2022-11-15T05:25:45;9.40;99.90
59660;DHT22;45534;52.690;6.268;2022-11-15T05:28:11;9.40;99.90
59660;DHT22;45534;52.690;6.268;2022-11-15T05:30:36;9.40;99.90
59660;DHT22;45534;52.690;6.268;2022-11-15T05:33:02;9.50;99.90
59660;DHT22;45534;52.690;6.268;2022-11-15T05:35:38;9.50;99.90
59660;DHT22;45534;52.690;6.268;2022-11-15T05:38:05;9.50;99.90
59660;DHT22;45534;52.690;6.268;2022-11-15T05:40:31;9.50;99.90
59660;DHT22;45534;52.690;6.268;2022-11-15T05:42:57;9.60;99.90
59660;DHT22;45534;52.690;6.268;2022-11-15T05:45:24;9.60;99.90
59660;DHT22;45534;52.690;6.268;2022-11-15T05:47:50;9.60;99.90
59660;DHT22;45534;52.690;6.268;2022-11-15T05:50:18;9.60;99.90
59660;DHT22;45534;52.690;6.268;2022-11-15T05:52:45;9.70;99.90
59660;DHT22;45534;52.690;6.268;2022-11-15T05:55:11;9.70;99.90
59660;DHT22;45534;52.690;6.268;2022-11-15T05:57:38;9.70;99.90
59660;DHT22;45534;52.690;6.268;2022-11-15T06:00:04;9.70;99.90
59660;DHT22;45534;52.690;6.268;2022-11-15T06:02:30;9.70;99.90
59660;DHT22;45534;52.690;6.268;2022-11-15T06:04:55;9.70;99.90
59660;DHT22;45534;52.690;6.268;2022-11-15T06:07:21;9.80;99.90
59660;DHT22;45534;52.690;6.268;2022-11-15T06:09:47;9.80;99.90
59660;DHT22;45534;52.690;6.268;2022-11-15T06:12:13;9.80;99.90
59660;DHT22;45534;52.690;6.268;2022-11-15T06:14:39;9.90;99.90
59660;DHT22;45534;52.690;6.268;2022-11-15T06:17:04;9.90;99.90
59660;DHT22;45534;52.690;6.268;2022-11-15T06:19:30;9.90;99.90
59660;DHT22;45534;52.690;6.268;2022-11-15T06:21:59;9.90;99.90
59660;DHT22;45534;52.690;6.268;2022-11-15T06:24:25;9.90;99.90
59660;DHT22;45534;52.690;6.268;2022-11-15T06:26:51;9.90;99.90
59660;DHT22;45534;52.690;6.268;2022-11-15T06:29:16;10.00;99.90
59660;DHT22;45534;52.690;6.268;2022-11-15T06:31:42;10.00;99.90
59660;DHT22;45534;52.690;6.268;2022-11-15T06:34:08;10.00;99.90
59660;DHT22;45534;52.690;6.268;2022-11-15T06:36:37;10.00;99.90
59660;DHT22;45534;52.690;6.268;2022-11-15T06:39:03;10.00;99.90
59660;DHT22;45534;52.690;6.268;2022-11-15T06:41:29;10.10;99.90
59660;DHT22;45534;52.690;6.268;2022-11-15T06:43:55;10.10;99.90
59660;DHT22;45534;52.690;6.268;2022-11-15T06:46:21;10.10;99.90
59660;DHT22;45534;52.690;6.268;2022-11-15T06:48:47;10.10;99.90
59660;DHT22;45534;52.690;6.268;2022-11-15T06:51:14;10.10;99.90
59660;DHT22;45534;52.690;6.268;2022-11-15T06:53:40;10.10;99.90
59660;DHT22;45534;52.690;6.268;2022-11-15T06:56:06;10.20;99.90
59660;DHT22;45534;52.690;6.268;2022-11-15T06:58:33;10.20;99.90
59660;DHT22;45534;52.690;6.268;2022-11-15T07:01:17;10.20;99.90
59660;DHT22;45534;52.690;6.268;2022-11-15T07:03:43;10.20;99.90
59660;DHT22;45534;52.690;6.268;2022-11-15T07:06:09;10.20;99.90
59660;DHT22;45534;52.690;6.268;2022-11-15T07:08:35;10.30;99.90
59660;DHT22;45534;52.690;6.268;2022-11-15T07:11:04;10.20;99.90
59660;DHT22;45534;52.690;6.268;2022-11-15T07:13:31;10.30;99.90
59660;DHT22;45534;52.690;6.268;2022-11-15T07:16:06;10.30;99.90
59660;DHT22;45534;52.690;6.268;2022-11-15T07:18:34;10.30;99.90
59660;DHT22;45534;52.690;6.268;2022-11-15T07:21:02;10.40;99.90
59660;DHT22;45534;52.690;6.268;2022-11-15T07:23:28;10.40;99.90
59660;DHT22;45534;52.690;6.268;2022-11-15T07:25:53;10.40;99.90
59660;DHT22;45534;52.690;6.268;2022-11-15T07:28:19;10.40;99.90
59660;DHT22;45534;52.690;6.268;2022-11-15T07:30:44;10.40;99.90
59660;DHT22;45534;52.690;6.268;2022-11-15T07:33:10;10.40;99.90
59660;DHT22;45534;52.690;6.268;2022-11-15T07:35:36;10.40;99.90
59660;DHT22;45534;52.690;6.268;2022-11-15T07:38:02;10.40;99.90
59660;DHT22;45534;52.690;6.268;2022-11-15T07:40:30;10.50;99.90
59660;DHT22;45534;52.690;6.268;2022-11-15T07:43:04;10.50;99.90
59660;DHT22;45534;52.690;6.268;2022-11-15T07:45:30;10.50;99.90
59660;DHT22;45534;52.690;6.268;2022-11-15T07:47:59;10.50;99.90
59660;DHT22;45534;52.690;6.268;2022-11-15T07:50:25;10.50;99.90
59660;DHT22;45534;52.690;6.268;2022-11-15T07:52:55;10.50;99.90
59660;DHT22;45534;52.690;6.268;2022-11-15T07:55:22;10.50;99.90
59660;DHT22;45534;52.690;6.268;2022-11-15T07:57:48;10.50;99.90
59660;DHT22;45534;52.690;6.268;2022-11-15T08:00:14;10.50;99.90
59660;DHT22;45534;52.690;6.268;2022-11-15T08:02:40;10.50;99.90
59660;DHT22;45534;52.690;6.268;2022-11-15T08:05:06;10.60;99.90
59660;DHT22;45534;52.690;6.268;2022-11-15T08:07:33;10.60;99.90
59660;DHT22;45534;52.690;6.268;2022-11-15T08:09:59;10.60;99.90
59660;DHT22;45534;52.690;6.268;2022-11-15T08:12:27;10.60;99.90
59660;DHT22;45534;52.690;6.268;2022-11-15T08:14:54;10.70;99.90
59660;DHT22;45534;52.690;6.268;2022-11-15T08:17:21;10.70;99.90
59660;DHT22;45534;52.690;6.268;2022-11-15T08:19:47;10.80;99.90
59660;DHT22;45534;52.690;6.268;2022-11-15T08:22:13;10.80;99.90
59660;DHT22;45534;52.690;6.268;2022-11-15T08:24:39;10.80;99.90
59660;DHT22;45534;52.690;6.268;2022-11-15T08:27:05;10.90;99.90
59660;DHT22;45534;52.690;6.268;2022-11-15T08:29:41;10.90;99.90
59660;DHT22;45534;52.690;6.268;2022-11-15T08:32:07;10.90;99.90
59660;DHT22;45534;52.690;6.268;2022-11-15T08:34:32;10.90;99.90
59660;DHT22;45534;52.690;6.268;2022-11-15T08:36:58;10.90;99.90
59660;DHT22;45534;52.690;6.268;2022-11-15T08:39:24;10.90;99.90
59660;DHT22;45534;52.690;6.268;2022-11-15T08:41:49;11.00;99.90
59660;DHT22;45534;52.690;6.268;2022-11-15T08:44:15;11.00;99.90
59660;DHT22;45534;52.690;6.268;2022-11-15T08:46:41;11.00;99.90
59660;DHT22;45534;52.690;6.268;2022-11-15T08:49:06;11.10;99.90
59660;DHT22;45534;52.690;6.268;2022-11-15T08:51:32;11.10;99.90
59660;DHT22;45534;52.690;6.268;2022-11-15T08:53:58;11.20;99.90
59660;DHT22;45534;52.690;6.268;2022-11-15T08:56:23;11.20;99.90
59660;DHT22;45534;52.690;6.268;2022-11-15T08:58:49;11.20;99.90
59660;DHT22;45534;52.690;6.268;2022-11-15T09:01:17;11.20;99.90
59660;DHT22;45534;52.690;6.268;2022-11-15T09:03:43;11.20;99.90
59660;DHT22;45534;52.690;6.268;2022-11-15T09:06:09;11.30;99.90
59660;DHT22;45534;52.690;6.268;2022-11-15T09:08:34;11.30;99.90
59660;DHT22;45534;52.690;6.268;2022-11-15T09:11:08;11.30;99.90
59660;DHT22;45534;52.690;6.268;2022-11-15T09:13:35;11.30;99.90
59660;DHT22;45534;52.690;6.268;2022-11-15T09:16:03;11.30;99.90
59660;DHT22;45534;52.690;6.268;2022-11-15T09:18:29;11.30;99.90
59660;DHT22;45534;52.690;6.268;2022-11-15T09:20:58;11.40;99.90
59660;DHT22;45534;52.690;6.268;2022-11-15T09:23:25;11.30;99.90
59660;DHT22;45534;52.690;6.268;2022-11-15T09:25:52;11.40;99.90
59660;DHT22;45534;52.690;6.268;2022-11-15T09:28:18;11.40;99.90
59660;DHT22;45534;52.690;6.268;2022-11-15T09:30:44;11.40;99.90
59660;DHT22;45534;52.690;6.268;2022-11-15T09:33:11;11.40;99.90
59660;DHT22;45534;52.690;6.268;2022-11-15T09:35:37;11.40;99.90
59660;DHT22;45534;52.690;6.268;2022-11-15T09:38:04;11.40;99.90
59660;DHT22;45534;52.690;6.268;2022-11-15T09:40:36;11.40;99.90
59660;DHT22;45534;52.690;6.268;2022-11-15T09:46:01;11.40;99.90
59660;DHT22;45534;52.690;6.268;2022-11-15T09:48:42;11.40;99.90
59660;DHT22;45534;52.690;6.268;2022-11-15T09:51:18;11.40;99.90
59660;DHT22;45534;52.690;6.268;2022-11-15T09:53:57;11.40;99.90
59660;DHT22;45534;52.690;6.268;2022-11-15T09:56:28;11.50;99.90
59660;DHT22;45534;52.690;6.268;2022-11-15T10:04:22;11.50;99.90
59660;DHT22;45534;52.690;6.268;2022-11-15T10:10:02;11.50;99.90
59660;DHT22;45534;52.690;6.268;2022-11-15T10:12:30;11.50;99.90
59660;DHT22;45534;52.690;6.268;2022-11-15T10:15:05;11.60;99.90
59660;DHT22;45534;52.690;6.268;2022-11-15T10:20:29;11.70;99.90
59660;DHT22;45534;52.690;6.268;2022-11-15T10:22:59;11.70;99.90
59660;DHT22;45534;52.690;6.268;2022-11-15T10:25:28;11.80;99.90
59660;DHT22;45534;52.690;6.268;2022-11-15T10:28:44;11.80;99.90
59660;DHT22;45534;52.690;6.268;2022-11-15T10:33:39;11.90;99.90
59660;DHT22;45534;52.690;6.268;2022-11-15T10:36:16;12.00;99.90
59660;DHT22;45534;52.690;6.268;2022-11-15T10:46:27;11.90;99.90
59660;DHT22;45534;52.690;6.268;2022-11-15T10:48:53;11.90;99.90
59660;DHT22;45534;52.690;6.268;2022-11-15T10:51:22;11.90;99.90
59660;DHT22;45534;52.690;6.268;2022-11-15T10:53:51;11.90;99.90
59660;DHT22;45534;52.690;6.268;2022-11-15T10:56:21;11.90;99.90
59660;DHT22;45534;52.690;6.268;2022-11-15T10:58:53;12.00;99.90
59660;DHT22;45534;52.690;6.268;2022-11-15T11:01:23;12.10;99.90
59660;DHT22;45534;52.690;6.268;2022-11-15T11:04:04;12.20;99.90
59660;DHT22;45534;52.690;6.268;2022-11-15T11:06:31;12.30;99.90
59660;DHT22;45534;52.690;6.268;2022-11-15T11:09:00;12.40;99.90
59660;DHT22;45534;52.690;6.268;2022-11-15T11:11:54;12.40;99.90
59660;DHT22;45534;52.690;6.268;2022-11-15T11:14:40;12.40;99.90
59660;DHT22;45534;52.690;6.268;2022-11-15T11:19:53;12.40;99.90
59660;DHT22;45534;52.690;6.268;2022-11-15T11:27:52;12.70;99.90
59660;DHT22;45534;52.690;6.268;2022-11-15T11:33:20;12.70;99.90
59660;DHT22;45534;52.690;6.268;2022-11-15T11:36:05;12.70;99.90
59660;DHT22;45534;52.690;6.268;2022-11-15T11:41:43;12.50;99.90
59660;DHT22;45534;52.690;6.268;2022-11-15T11:44:28;12.60;99.90
59660;DHT22;45534;52.690;6.268;2022-11-15T11:46:56;12.90;99.90
59660;DHT22;45534;52.690;6.268;2022-11-15T11:52:16;13.10;99.90
59660;DHT22;45534;52.690;6.268;2022-11-15T11:57:39;13.10;99.90
59660;DHT22;45534;52.690;6.268;2022-11-15T12:00:19;13.00;99.90
59660;DHT22;45534;52.690;6.268;2022-11-15T12:05:43;13.10;99.90
59660;DHT22;45534;52.690;6.268;2022-11-15T12:08:27;13.10;99.90
59660;DHT22;45534;52.690;6.268;2022-11-15T12:13:48;13.50;99.90
59660;DHT22;45534;52.690;6.268;2022-11-15T12:16:26;13.60;99.90
59660;DHT22;45534;52.690;6.268;2022-11-15T12:18:54;13.60;99.90
59660;DHT22;45534;52.690;6.268;2022-11-15T12:21:34;13.50;99.90
59660;DHT22;45534;52.690;6.268;2022-11-15T12:24:06;13.20;99.90
59660;DHT22;45534;52.690;6.268;2022-11-15T12:26:42;13.00;99.90
59660;DHT22;45534;52.690;6.268;2022-11-15T12:29:28;13.00;99.90
59660;DHT22;45534;52.690;6.268;2022-11-15T12:31:55;13.00;99.90
59660;DHT22;45534;52.690;6.268;2022-11-15T12:34:40;12.90;99.90
59660;DHT22;45534;52.690;6.268;2022-11-15T12:42:43;13.30;99.90
59660;DHT22;45534;52.690;6.268;2022-11-15T12:45:39;13.70;99.90
59660;DHT22;45534;52.690;6.268;2022-11-15T13:07:05;14.40;99.90
59660;DHT22;45534;52.690;6.268;2022-11-15T13:12:11;14.90;99.90
59660;DHT22;45534;52.690;6.268;2022-11-15T13:15:00;15.00;99.90
59660;DHT22;45534;52.690;6.268;2022-11-15T13:17:36;15.10;99.90
59660;DHT22;45534;52.690;6.268;2022-11-15T13:30:59;15.60;99.90
59660;DHT22;45534;52.690;6.268;2022-11-15T13:33:33;15.80;99.90
59660;DHT22;45534;52.690;6.268;2022-11-15T13:36:01;15.70;99.90
59660;DHT22;45534;52.690;6.268;2022-11-15T13:38:31;15.60;99.90
59660;DHT22;45534;52.690;6.268;2022-11-15T13:40:58;15.30;99.90
59660;DHT22;45534;52.690;6.268;2022-11-15T13:43:31;15.10;99.90
59660;DHT22;45534;52.690;6.268;2022-11-15T13:48:38;14.70;99.90
59660;DHT22;45534;52.690;6.268;2022-11-15T13:51:13;14.50;99.90
59660;DHT22;45534;52.690;6.268;2022-11-15T13:53:44;14.30;99.90
59660;DHT22;45534;52.690;6.268;2022-11-15T13:56:13;14.20;99.90
59660;DHT22;45534;52.690;6.268;2022-11-15T13:58:39;14.10;99.90
59660;DHT22;45534;52.690;6.268;2022-11-15T14:01:05;14.10;99.90
59660;DHT22;45534;52.690;6.268;2022-11-15T14:03:35;14.00;99.90
59660;DHT22;45534;52.690;6.268;2022-11-15T14:06:10;13.80;99.90
59660;DHT22;45534;52.690;6.268;2022-11-15T14:09:00;13.70;99.90
59660;DHT22;45534;52.690;6.268;2022-11-15T14:11:26;13.70;99.90
59660;DHT22;45534;52.690;6.268;2022-11-15T14:16:36;13.70;99.90
59660;DHT22;45534;52.690;6.268;2022-11-15T14:19:04;13.60;99.90
59660;DHT22;45534;52.690;6.268;2022-11-15T14:21:32;13.50;99.90
59660;DHT22;45534;52.690;6.268;2022-11-15T14:26:41;13.20;99.90
59660;DHT22;45534;52.690;6.268;2022-11-15T14:29:29;13.10;99.90
59660;DHT22;45534;52.690;6.268;2022-11-15T14:32:15;13.00;99.90
59660;DHT22;45534;52.690;6.268;2022-11-15T14:34:42;12.80;99.90
59660;DHT22;45534;52.690;6.268;2022-11-15T14:37:29;12.70;99.90
59660;DHT22;45534;52.690;6.268;2022-11-15T14:39:58;12.60;99.90
59660;DHT22;45534;52.690;6.268;2022-11-15T14:42:24;12.50;99.90
59660;DHT22;45534;52.690;6.268;2022-11-15T14:44:51;12.40;99.90
59660;DHT22;45534;52.690;6.268;2022-11-15T14:47:17;12.40;99.90
59660;DHT22;45534;52.690;6.268;2022-11-15T14:49:43;12.30;99.90
59660;DHT22;45534;52.690;6.268;2022-11-15T14:52:30;12.30;99.90
59660;DHT22;45534;52.690;6.268;2022-11-15T14:54:59;12.30;99.90
59660;DHT22;45534;52.690;6.268;2022-11-15T14:57:26;12.20;99.90
59660;DHT22;45534;52.690;6.268;2022-11-15T14:59:52;12.20;99.90
59660;DHT22;45534;52.690;6.268;2022-11-15T15:02:20;12.10;99.90
59660;DHT22;45534;52.690;6.268;2022-11-15T15:04:46;12.10;99.90
59660;DHT22;45534;52.690;6.268;2022-11-15T15:07:12;12.10;99.90
59660;DHT22;45534;52.690;6.268;2022-11-15T15:09:37;12.00;99.90
59660;DHT22;45534;52.690;6.268;2022-11-15T15:12:04;11.90;99.90
59660;DHT22;45534;52.690;6.268;2022-11-15T15:14:30;11.90;99.90
59660;DHT22;45534;52.690;6.268;2022-11-15T15:16:56;11.80;99.90
59660;DHT22;45534;52.690;6.268;2022-11-15T15:19:21;11.70;99.90
59660;DHT22;45534;52.690;6.268;2022-11-15T15:21:47;11.70;99.90
59660;DHT22;45534;52.690;6.268;2022-11-15T15:24:16;11.60;99.90
59660;DHT22;45534;52.690;6.268;2022-11-15T15:26:41;11.60;99.90
59660;DHT22;45534;52.690;6.268;2022-11-15T15:29:09;11.50;99.90
59660;DHT22;45534;52.690;6.268;2022-11-15T15:31:35;11.50;99.90
59660;DHT22;45534;52.690;6.268;2022-11-15T15:34:01;11.40;99.90
59660;DHT22;45534;52.690;6.268;2022-11-15T15:36:26;11.30;99.90
59660;DHT22;45534;52.690;6.268;2022-11-15T15:38:52;11.30;99.90
59660;DHT22;45534;52.690;6.268;2022-11-15T15:41:18;11.20;99.90
59660;DHT22;45534;52.690;6.268;2022-11-15T15:43:44;11.20;99.90
59660;DHT22;45534;52.690;6.268;2022-11-15T15:46:12;11.10;99.90
59660;DHT22;45534;52.690;6.268;2022-11-15T15:48:38;11.10;99.90
59660;DHT22;45534;52.690;6.268;2022-11-15T15:51:05;11.00;99.90
59660;DHT22;45534;52.690;6.268;2022-11-15T15:53:31;11.00;99.90
59660;DHT22;45534;52.690;6.268;2022-11-15T15:55:57;11.00;99.90
59660;DHT22;45534;52.690;6.268;2022-11-15T15:58:22;11.00;99.90
59660;DHT22;45534;52.690;6.268;2022-11-15T16:00:48;11.00;99.90
59660;DHT22;45534;52.690;6.268;2022-11-15T16:03:14;11.00;99.90
59660;DHT22;45534;52.690;6.268;2022-11-15T16:05:39;11.10;99.90
59660;DHT22;45534;52.690;6.268;2022-11-15T16:08:14;11.10;99.90
59660;DHT22;45534;52.690;6.268;2022-11-15T16:10:41;11.10;99.90
59660;DHT22;45534;52.690;6.268;2022-11-15T16:13:07;11.10;99.90
59660;DHT22;45534;52.690;6.268;2022-11-15T16:15:33;11.20;99.90
59660;DHT22;45534;52.690;6.268;2022-11-15T16:18:00;11.10;99.90
59660;DHT22;45534;52.690;6.268;2022-11-15T16:20:38;11.10;99.90
59660;DHT22;45534;52.690;6.268;2022-11-15T16:23:13;11.10;99.90
59660;DHT22;45534;52.690;6.268;2022-11-15T16:25:44;11.10;99.90
59660;DHT22;45534;52.690;6.268;2022-11-15T16:28:22;11.10;99.90
59660;DHT22;45534;52.690;6.268;2022-11-15T16:30:48;11.20;99.90
59660;DHT22;45534;52.690;6.268;2022-11-15T16:33:14;11.20;99.90
59660;DHT22;45534;52.690;6.268;2022-11-15T16:35:41;11.20;99.90
59660;DHT22;45534;52.690;6.268;2022-11-15T16:38:14;11.20;99.90
59660;DHT22;45534;52.690;6.268;2022-11-15T16:40:40;11.20;99.90
59660;DHT22;45534;52.690;6.268;2022-11-15T16:43:05;11.20;99.90
59660;DHT22;45534;52.690;6.268;2022-11-15T16:45:33;11.10;99.90
59660;DHT22;45534;52.690;6.268;2022-11-15T16:47:59;11.10;99.90
59660;DHT22;45534;52.690;6.268;2022-11-15T16:50:27;11.10;99.90
59660;DHT22;45534;52.690;6.268;2022-11-15T16:52:56;11.10;99.90
59660;DHT22;45534;52.690;6.268;2022-11-15T16:55:24;11.10;99.90
59660;DHT22;45534;52.690;6.268;2022-11-15T16:57:50;11.10;99.90
59660;DHT22;45534;52.690;6.268;2022-11-15T17:00:17;11.10;99.90
59660;DHT22;45534;52.690;6.268;2022-11-15T17:02:44;11.10;99.90
59660;DHT22;45534;52.690;6.268;2022-11-15T17:05:11;11.10;99.90
59660;DHT22;45534;52.690;6.268;2022-11-15T17:07:38;11.10;99.90
59660;DHT22;45534;52.690;6.268;2022-11-15T17:10:04;11.10;99.90
59660;DHT22;45534;52.690;6.268;2022-11-15T17:12:30;11.20;99.90
59660;DHT22;45534;52.690;6.268;2022-11-15T17:14:56;11.20;99.90
59660;DHT22;45534;52.690;6.268;2022-11-15T17:17:22;11.20;99.90
59660;DHT22;45534;52.690;6.268;2022-11-15T17:19:47;11.20;99.90
59660;DHT22;45534;52.690;6.268;2022-11-15T17:22:13;11.20;99.90
59660;DHT22;45534;52.690;6.268;2022-11-15T17:24:39;11.20;99.90
59660;DHT22;45534;52.690;6.268;2022-11-15T17:27:04;11.20;99.90
59660;DHT22;45534;52.690;6.268;2022-11-15T17:29:30;11.20;99.90
59660;DHT22;45534;52.690;6.268;2022-11-15T17:31:56;11.30;99.90
59660;DHT22;45534;52.690;6.268;2022-11-15T17:34:21;11.20;99.90
59660;DHT22;45534;52.690;6.268;2022-11-15T17:36:48;11.30;99.90
59660;DHT22;45534;52.690;6.268;2022-11-15T17:39:13;11.30;99.90
59660;DHT22;45534;52.690;6.268;2022-11-15T17:41:39;11.30;99.90
59660;DHT22;45534;52.690;6.268;2022-11-15T17:44:05;11.40;99.90
59660;DHT22;45534;52.690;6.268;2022-11-15T17:46:31;11.40;99.90
59660;DHT22;45534;52.690;6.268;2022-11-15T17:48:58;11.40;99.90
59660;DHT22;45534;52.690;6.268;2022-11-15T17:51:24;11.40;99.90
59660;DHT22;45534;52.690;6.268;2022-11-15T17:53:50;11.40;99.90